Time;durP1;ratioP1;P1;durP2;ratioP2;P2;SDS_P1;SDS_P2;PMS_P1;PMS_P2;Temp;Humidity;BMP_temperature;BMP_pressure;BME280_temperature;BME280_humidity;BME280_pressure;Samples;Min_cycle;Max_cycle;Signal;HPM_P1;HPM_P2
2024/01/31 00:00:54;;;;;;;33.40;23.27;;;;;;;7.93;100.00;102061.31;5029396;28;20045;-76
2024/01/31 00:03:22;;;;;;;32.28;21.83;;;;;;;7.95;100.00;102059.53;5048041;28;20041;-76
2024/01/31 00:05:52;;;;;;;27.92;20.77;;;;;;;7.96;100.00;102056.00;5035285;28;20433;-76
2024/01/31 00:08:23;;;;;;;30.70;20.83;;;;;;;7.97;100.00;102063.03;5016641;28;20056;-76
2024/01/31 00:10:52;;;;;;;29.02;21.77;;;;;;;7.93;100.00;102048.13;5018819;28;20097;-75
2024/01/31 00:13:22;;;;;;;30.98;22.42;;;;;;;8.03;100.00;102056.81;5028322;28;20363;-73
2024/01/31 00:15:50;;;;;;;29.48;21.40;;;;;;;8.00;100.00;102044.53;5029811;28;20068;-75
2024/01/31 00:18:21;;;;;;;32.03;23.02;;;;;;;8.05;100.00;102060.31;5026088;28;20139;-76
2024/01/31 00:20:51;;;;;;;32.90;24.25;;;;;;;7.89;100.00;102040.25;5029487;28;20049;-75
2024/01/31 00:23:23;;;;;;;31.70;21.77;;;;;;;8.01;100.00;102062.13;5028159;28;20127;-76
2024/01/31 00:25:52;;;;;;;31.38;21.25;;;;;;;8.03;100.00;102062.09;5015355;28;20073;-75
2024/01/31 00:28:20;;;;;;;30.40;21.73;;;;;;;7.97;100.00;102052.50;5026947;28;20173;-75
2024/01/31 00:30:48;;;;;;;30.08;21.55;;;;;;;8.03;100.00;102057.69;5026064;28;20045;-72
2024/01/31 00:33:16;;;;;;;33.33;22.92;;;;;;;8.05;100.00;102057.66;5015129;28;20529;-72
2024/01/31 00:35:44;;;;;;;29.38;20.95;;;;;;;7.98;100.00;102040.16;5025041;28;20495;-76
2024/01/31 00:38:17;;;;;;;29.70;21.73;;;;;;;8.02;100.00;102040.13;5036699;28;20050;-77
2024/01/31 00:40:45;;;;;;;28.60;20.88;;;;;;;8.05;100.00;102045.34;5023029;28;20092;-75
2024/01/31 00:43:14;;;;;;;28.35;20.20;;;;;;;8.05;100.00;102052.38;5040210;28;20052;-75
2024/01/31 00:45:46;;;;;;;31.38;21.08;;;;;;;8.06;100.00;102060.28;5030999;28;20049;-73
2024/01/31 00:48:16;;;;;;;28.70;20.70;;;;;;;8.06;100.00;102055.03;5047661;28;20137;-74
2024/01/31 00:50:45;;;;;;;28.40;20.73;;;;;;;8.05;100.00;102055.03;5037961;28;20421;-76
2024/01/31 00:53:14;;;;;;;27.77;20.85;;;;;;;8.01;100.00;102050.69;5040983;28;20032;-77
2024/01/31 00:55:43;;;;;;;30.85;20.52;;;;;;;7.99;100.00;102052.47;5006140;28;20542;-75
2024/01/31 00:58:11;;;;;;;26.70;20.67;;;;;;;7.97;100.00;102052.50;5027526;28;20053;-77
2024/01/31 01:00:43;;;;;;;27.55;19.58;;;;;;;8.04;100.00;102063.84;5022488;28;20085;-76
2024/01/31 01:03:11;;;;;;;26.50;19.30;;;;;;;8.04;100.00;102058.56;5022695;28;20124;-73
2024/01/31 01:05:40;;;;;;;26.15;19.50;;;;;;;7.99;100.00;102053.34;5028164;28;20050;-75
2024/01/31 01:08:09;;;;;;;29.52;20.60;;;;;;;8.03;100.00;102057.69;5017472;28;20608;-74
2024/01/31 01:10:38;;;;;;;28.15;20.48;;;;;;;8.04;100.00;102055.91;5005981;28;20056;-75
2024/01/31 01:13:08;;;;;;;32.43;21.80;;;;;;;8.00;100.00;102056.88;5038338;28;20486;-75
2024/01/31 01:15:37;;;;;;;30.65;21.20;;;;;;;8.03;100.00;102057.69;5016229;28;20033;-75
2024/01/31 01:18:06;;;;;;;30.30;20.88;;;;;;;8.01;100.00;102053.34;5032112;28;20520;-75
2024/01/31 01:20:36;;;;;;;31.20;21.17;;;;;;;7.98;100.00;102059.50;5028563;28;20056;-76
2024/01/31 01:23:06;;;;;;;28.17;20.77;;;;;;;7.94;100.00;102052.50;5034035;28;20049;-75
2024/01/31 01:25:35;;;;;;;39.30;24.52;;;;;;;7.96;100.00;102049.84;5028558;28;20049;-72
2024/01/31 01:28:07;;;;;;;30.73;21.85;;;;;;;7.97;100.00;102052.50;5025127;28;20060;-76
2024/01/31 01:30:38;;;;;;;31.00;22.20;;;;;;;8.02;100.00;102058.59;5029786;28;20133;-76
2024/01/31 01:33:08;;;;;;;;;;;;;;;8.02;100.00;102066.50;5009629;28;20038;-76
2024/01/31 01:35:39;;;;;;;35.08;23.17;;;;;;;8.01;100.00;102064.75;5020366;28;20020;-74
2024/01/31 01:38:08;;;;;;;35.25;23.25;;;;;;;7.98;100.00;102064.78;5020954;28;20045;-76
2024/01/31 01:40:38;;;;;;;33.85;22.85;;;;;;;7.94;100.00;102052.50;5025534;28;20434;-75
2024/01/31 01:43:17;;;;;;;31.35;22.40;;;;;;;7.99;100.00;102048.06;5041516;28;20056;-76
2024/01/31 01:45:45;;;;;;;29.55;21.17;;;;;;;8.02;100.00;102055.09;5020531;28;20041;-77
2024/01/31 01:48:15;;;;;;;29.55;22.17;;;;;;;8.05;100.00;102058.53;5017055;28;20131;-76
2024/01/31 01:50:46;;;;;;;32.03;22.58;;;;;;;7.81;100.00;102029.78;5019418;28;20049;-76
2024/01/31 01:53:14;;;;;;;29.02;21.38;;;;;;;8.04;100.00;102069.97;5039435;28;20056;-76
2024/01/31 01:55:44;;;;;;;33.20;22.20;;;;;;;8.02;100.00;102061.25;5030860;28;20053;-74
2024/01/31 01:58:13;;;;;;;30.95;21.17;;;;;;;7.94;100.00;102049.88;5026373;28;20053;-75
2024/01/31 02:00:45;;;;;;;28.75;20.38;;;;;;;8.03;100.00;102067.34;5021814;28;20691;-75
2024/01/31 02:03:32;;;;;;;29.85;20.90;;;;;;;8.00;100.00;102064.78;5010814;28;20407;-75
2024/01/31 02:06:01;;;;;;;31.85;20.55;;;;;;;8.02;100.00;102071.78;5016058;28;20501;-73
2024/01/31 02:08:30;;;;;;;31.60;22.00;;;;;;;7.94;100.00;102054.28;5023136;28;20045;-73
2024/01/31 02:10:57;;;;;;;33.45;22.15;;;;;;;8.00;100.00;102072.69;5023151;28;20133;-74
2024/01/31 02:13:25;;;;;;;34.63;21.88;;;;;;;7.97;100.00;102073.59;5025201;28;20609;-74
2024/01/31 02:15:59;;;;;;;33.17;20.80;;;;;;;7.95;100.00;102070.09;5027374;28;20056;-75
2024/01/31 02:18:29;;;;;;;31.90;20.38;;;;;;;7.93;100.00;102056.03;5027448;28;20084;-74
2024/01/31 02:20:58;;;;;;;30.90;20.35;;;;;;;7.93;100.00;102056.03;5024494;28;20127;-76
2024/01/31 02:23:27;;;;;;;28.27;20.77;;;;;;;7.93;100.00;102063.94;5029702;28;20150;-75
2024/01/31 02:25:57;;;;;;;32.00;21.88;;;;;;;8.00;100.00;102068.28;5017560;28;20041;-75
2024/01/31 02:28:26;;;;;;;30.13;21.23;;;;;;;7.99;100.00;102061.25;5032867;28;20041;-76
2024/01/31 02:30:55;;;;;;;31.42;21.35;;;;;;;8.00;100.00;102067.41;5012453;28;20083;-76
2024/01/31 02:33:24;;;;;;;31.10;20.85;;;;;;;7.99;100.00;102061.25;5010075;28;20052;-76
2024/01/31 02:35:53;;;;;;;30.73;21.48;;;;;;;8.07;100.00;102061.16;5015019;28;20063;-75
2024/01/31 02:38:24;;;;;;;30.55;20.80;;;;;;;8.09;100.00;102069.94;5029923;28;20135;-76
2024/01/31 02:40:54;;;;;;;29.65;20.10;;;;;;;8.04;100.00;102059.44;5025515;28;20551;-75
2024/01/31 02:43:22;;;;;;;27.27;19.33;;;;;;;7.99;100.00;102061.25;5039138;28;20041;-73
2024/01/31 02:45:55;;;;;;;28.27;18.95;;;;;;;7.96;100.00;102063.06;5030934;28;20366;-77
2024/01/31 02:48:24;;;;;;;26.40;19.65;;;;;;;7.94;100.00;102051.63;5028333;28;20152;-73
2024/01/31 02:50:54;;;;;;;27.55;18.52;;;;;;;7.93;100.00;102063.94;5019173;28;20125;-77
2024/01/31 02:53:22;;;;;;;32.33;20.30;;;;;;;7.86;100.00;102054.38;5042355;28;20057;-76
2024/01/31 02:55:50;;;;;;;25.38;18.08;;;;;;;7.78;100.00;102072.00;4999191;28;20076;-73
2024/01/31 02:58:20;;;;;;;23.65;16.15;;;;;;;7.73;100.00;102066.75;5027768;28;20049;-75
2024/01/31 03:00:48;;;;;;;23.95;16.25;;;;;;;7.70;100.00;102072.09;5028110;28;20625;-75
2024/01/31 03:03:16;;;;;;;23.88;15.73;;;;;;;7.70;100.00;102060.66;5026573;28;22184;-76
2024/01/31 03:05:49;;;;;;;21.17;14.43;;;;;;;7.64;100.00;102050.16;5013009;28;20052;-75
2024/01/31 03:08:18;;;;;;;20.38;14.70;;;;;;;7.75;100.00;102072.91;5027534;28;20120;-74
2024/01/31 03:10:47;;;;;;;13.90;10.18;;;;;;;7.65;100.00;102065.09;5001687;28;20056;-75
2024/01/31 03:13:15;;;;;;;15.38;8.55;;;;;;;7.65;100.00;102070.38;5038540;28;20045;-75
2024/01/31 03:15:44;;;;;;;13.02;7.22;;;;;;;7.64;100.00;102066.84;5015781;28;20104;-77
2024/01/31 03:18:14;;;;;;;8.38;6.32;;;;;;;7.63;100.00;102072.13;5046457;28;20567;-77
2024/01/31 03:20:42;;;;;;;8.75;5.10;;;;;;;7.62;100.00;102080.94;5028244;28;20109;-75
2024/01/31 03:23:10;;;;;;;8.02;5.45;;;;;;;7.67;100.00;102085.28;5035901;28;20045;-74
2024/01/31 03:25:39;;;;;;;9.63;4.47;;;;;;;7.69;100.00;102085.28;5028840;28;20049;-74
2024/01/31 03:28:08;;;;;;;8.05;4.35;;;;;;;7.72;100.00;102077.31;5025287;28;20140;-75
2024/01/31 03:30:38;;;;;;;7.15;4.40;;;;;;;7.71;100.00;102067.69;5008371;28;20046;-73
2024/01/31 03:33:09;;;;;;;7.32;4.50;;;;;;;7.71;100.00;102080.88;5025694;28;20787;-77
2024/01/31 03:35:38;;;;;;;8.93;4.72;;;;;;;7.65;100.00;102075.63;5033734;28;20045;-73
2024/01/31 03:38:06;;;;;;;8.43;5.35;;;;;;;7.67;100.00;102087.91;5022876;28;20050;-74
2024/01/31 03:40:34;;;;;;;7.93;4.82;;;;;;;7.65;100.00;102102.00;5014367;28;20119;-75
2024/01/31 03:43:03;;;;;;;9.82;5.80;;;;;;;7.63;100.00;102094.09;5047546;28;20176;-73
2024/01/31 03:45:31;;;;;;;10.70;7.10;;;;;;;7.49;100.00;102071.38;5032542;28;20057;-71
2024/01/31 03:47:59;;;;;;;14.50;8.20;;;;;;;7.48;100.00;102090.72;5025541;28;20045;-74
2024/01/31 03:50:29;;;;;;;11.50;7.82;;;;;;;7.50;100.00;102108.25;5023495;28;20038;-72
2024/01/31 03:52:58;;;;;;;11.88;8.00;;;;;;;7.48;100.00;102120.56;5028696;28;20048;-73
2024/01/31 03:55:27;;;;;;;13.77;8.73;;;;;;;7.46;100.00;102111.78;5030236;28;20054;-74
2024/01/31 03:57:55;;;;;;;14.20;8.00;;;;;;;7.40;100.00;102112.69;5036103;28;20152;-77
2024/01/31 04:00:23;;;;;;;12.95;8.65;;;;;;;7.40;100.00;102112.69;5021855;28;20037;-73
2024/01/31 04:02:51;;;;;;;13.07;8.25;;;;;;;7.38;100.00;102114.50;5030044;28;20099;-74
2024/01/31 04:05:21;;;;;;;13.65;8.63;;;;;;;7.33;100.00;102115.41;5011119;28;20045;-75
2024/01/31 04:07:53;;;;;;;13.63;8.80;;;;;;;7.25;100.00;102101.38;5033780;28;20454;-77
2024/01/31 04:10:26;;;;;;;15.47;9.60;;;;;;;7.16;100.00;102085.66;5038027;28;20084;-75
2024/01/31 04:12:55;;;;;;;14.30;8.57;;;;;;;7.26;100.00;102113.69;5033196;28;20037;-76
2024/01/31 04:15:23;;;;;;;12.93;8.32;;;;;;;7.23;100.00;102119.00;5018306;28;20174;-76
2024/01/31 04:17:55;;;;;;;12.02;8.23;;;;;;;7.21;100.00;102112.84;5016005;28;20053;-76
2024/01/31 04:20:23;;;;;;;12.82;8.90;;;;;;;7.18;100.00;102116.38;5024218;28;20573;-75
2024/01/31 04:22:58;;;;;;;13.52;8.77;;;;;;;7.14;100.00;102125.16;5006447;28;20055;-75
2024/01/31 04:25:27;;;;;;;12.75;8.35;;;;;;;7.09;100.00;102119.03;5020228;28;20045;-75
2024/01/31 04:27:56;;;;;;;12.15;7.97;;;;;;;6.97;100.00;102116.47;5034655;28;20171;-74
2024/01/31 04:30:25;;;;;;;10.25;7.65;;;;;;;6.97;100.00;102130.53;5022838;28;20038;-75
2024/01/31 04:33:01;;;;;;;15.77;8.40;;;;;;;6.82;100.00;102113.91;5043099;28;20046;-77
2024/01/31 04:35:33;;;;;;;12.68;8.30;;;;;;;6.85;100.00;102132.34;5016145;28;20052;-75
2024/01/31 04:38:05;;;;;;;15.65;8.18;;;;;;;6.78;100.00;102126.19;5034698;28;20053;-77
2024/01/31 04:40:34;;;;;;;11.48;8.30;;;;;;;6.65;100.00;102128.00;5024327;28;20088;-77
2024/01/31 04:43:03;;;;;;;13.73;8.90;;;;;;;6.51;100.00;102121.03;5043838;28;20050;-76
2024/01/31 04:45:34;;;;;;;14.20;8.65;;;;;;;6.52;100.00;102134.19;5024203;28;20067;-76
2024/01/31 04:48:06;;;;;;;15.07;8.65;;;;;;;6.50;100.00;102137.72;5020658;28;20056;-77
2024/01/31 04:50:35;;;;;;;11.98;8.38;;;;;;;6.38;100.00;102130.72;5025221;28;20079;-75
2024/01/31 04:53:19;;;;;;;12.18;8.50;;;;;;;6.39;100.00;102136.88;5025037;28;20041;-73
2024/01/31 04:55:58;;;;;;;12.55;8.25;;;;;;;6.21;100.00;102108.84;4973762;28;20597;-76
2024/01/31 04:58:27;;;;;;;11.30;7.75;;;;;;;6.26;100.00;102126.38;4986563;28;20038;-75
2024/01/31 05:00:55;;;;;;;10.57;8.30;;;;;;;6.25;100.00;102131.63;4976693;28;20046;-75
2024/01/31 05:03:27;;;;;;;13.00;7.78;;;;;;;6.17;100.00;102122.84;4985237;28;20078;-73
2024/01/31 05:06:00;;;;;;;13.02;7.82;;;;;;;6.22;100.00;102129.88;4976778;28;20052;-75
2024/01/31 05:08:29;;;;;;;10.82;7.18;;;;;;;6.26;100.00;102133.38;4988115;28;20065;-75
2024/01/31 05:11:02;;;;;;;10.88;7.15;;;;;;;6.20;100.00;102130.75;4991997;28;20137;-75
2024/01/31 05:13:31;;;;;;;12.25;7.20;;;;;;;6.20;100.00;102130.75;4985588;28;20042;-74
2024/01/31 05:16:00;;;;;;;;;;;;;;;6.20;100.00;102139.53;4982735;28;20057;-74
2024/01/31 05:18:33;;;;;;;10.50;7.35;;;;;;;6.18;100.00;102141.28;4969252;28;20044;-75
2024/01/31 05:21:02;;;;;;;13.88;7.47;;;;;;;6.15;100.00;102143.03;5000065;28;20043;-76
2024/01/31 05:23:31;;;;;;;9.48;6.70;;;;;;;6.11;100.00;102142.19;4982462;28;20065;-75
2024/01/31 05:26:01;;;;;;;12.15;7.05;;;;;;;6.06;100.00;102130.78;4980775;28;20042;-76
2024/01/31 05:28:35;;;;;;;13.48;7.65;;;;;;;6.02;100.00;102142.16;4987196;28;20118;-76
2024/01/31 05:31:04;;;;;;;11.27;7.00;;;;;;;5.97;100.00;102128.16;5004503;28;20058;-75
2024/01/31 05:33:32;;;;;;;11.38;7.13;;;;;;;5.93;100.00;102135.16;4984359;28;20054;-75
2024/01/31 05:36:09;;;;;;;12.25;7.38;;;;;;;5.86;100.00;102136.00;4983207;28;20069;-77
2024/01/31 05:38:43;;;;;;;10.75;7.20;;;;;;;5.76;100.00;102134.25;4981071;28;20046;-76
2024/01/31 05:41:15;;;;;;;11.77;7.28;;;;;;;5.72;100.00;102140.38;5000946;28;20144;-73
2024/01/31 05:43:46;;;;;;;11.43;7.60;;;;;;;5.67;100.00;102147.38;4990502;28;20133;-76
2024/01/31 05:46:17;;;;;;;10.75;6.82;;;;;;;5.61;100.00;102144.75;4985320;28;20056;-75
2024/01/31 05:48:46;;;;;;;10.43;7.53;;;;;;;5.54;100.00;102141.22;5003077;28;20110;-75
2024/01/31 05:51:18;;;;;;;11.35;6.72;;;;;;;5.49;100.00;102136.84;4970759;28;20568;-77
2024/01/31 05:53:49;;;;;;;11.15;7.38;;;;;;;5.43;100.00;102128.94;4996087;28;20123;-76
2024/01/31 05:56:20;;;;;;;11.43;7.22;;;;;;;5.28;100.00;102109.66;4969578;28;20893;-75
2024/01/31 05:58:48;;;;;;;13.82;7.30;;;;;;;5.34;100.00;102123.69;5009599;28;20042;-77
2024/01/31 06:01:17;;;;;;;11.30;7.93;;;;;;;5.28;100.00;102117.53;5009966;28;20406;-74
2024/01/31 06:03:49;;;;;;;11.32;7.68;;;;;;;5.25;100.00;102120.16;5019970;28;20141;-76
2024/01/31 06:06:17;;;;;;;12.98;7.57;;;;;;;5.22;100.00;102114.00;5004139;28;20045;-76
2024/01/31 06:08:45;;;;;;;10.52;6.80;;;;;;;5.16;100.00;102107.03;5011323;28;20190;-76
2024/01/31 06:11:13;;;;;;;11.52;7.68;;;;;;;5.12;100.00;102107.88;5013752;28;20503;-75
2024/01/31 06:13:48;;;;;;;12.20;7.60;;;;;;;5.10;100.00;102107.00;5008061;28;20077;-76
2024/01/31 06:16:16;;;;;;;10.95;7.47;;;;;;;5.11;100.00;102110.50;4993122;28;20052;-76
2024/01/31 06:18:46;;;;;;;11.43;8.07;;;;;;;5.09;100.00;102117.50;5015062;28;20041;-75
2024/01/31 06:21:16;;;;;;;10.07;7.43;;;;;;;5.04;100.00;102120.09;5015887;28;20046;-76
2024/01/31 06:23:49;;;;;;;11.60;7.30;;;;;;;5.08;100.00;102132.38;5005752;28;20046;-77
2024/01/31 06:26:18;;;;;;;12.25;7.75;;;;;;;5.05;100.00;102137.59;5010181;28;20608;-75
2024/01/31 06:28:49;;;;;;;13.15;7.63;;;;;;;4.99;100.00;102134.97;5021907;28;20513;-75
2024/01/31 06:31:25;;;;;;;11.50;8.07;;;;;;;4.92;100.00;102134.06;5010529;28;20065;-75
2024/01/31 06:33:53;;;;;;;11.93;8.18;;;;;;;4.77;100.00;102128.75;5008991;28;20057;-75
2024/01/31 06:36:23;;;;;;;12.07;8.38;;;;;;;4.77;100.00;102148.88;4997994;28;20091;-75
2024/01/31 06:38:52;;;;;;;12.48;8.45;;;;;;;4.72;100.00;102158.47;5019885;28;20053;-75
2024/01/31 06:41:23;;;;;;;12.27;8.55;;;;;;;4.72;100.00;102156.69;5011031;28;20466;-77
2024/01/31 06:44:08;;;;;;;13.50;8.65;;;;;;;4.73;100.00;102168.06;5007227;28;20133;-74
2024/01/31 06:46:38;;;;;;;12.85;8.80;;;;;;;4.68;100.00;102154.09;5006250;28;20771;-74
2024/01/31 06:49:06;;;;;;;14.63;9.82;;;;;;;4.77;100.00;102167.22;4993239;28;20402;-76
2024/01/31 06:51:34;;;;;;;14.27;9.55;;;;;;;4.77;100.00;102160.25;5010242;28;20053;-76
2024/01/31 06:54:03;;;;;;;15.10;10.15;;;;;;;4.77;100.00;102146.25;5010837;28;20102;-74
2024/01/31 06:56:34;;;;;;;13.18;9.25;;;;;;;4.84;100.00;102166.41;5002878;28;20108;-77
2024/01/31 06:59:05;;;;;;;18.02;9.77;;;;;;;4.80;100.00;102178.63;5012645;28;20482;-76
2024/01/31 07:01:39;;;;;;;13.80;7.90;;;;;;;4.80;100.00;102177.75;5006544;28;20050;-76
2024/01/31 07:04:08;;;;;;;16.17;10.10;;;;;;;4.84;100.00;102169.03;5011468;28;20048;-75
2024/01/31 07:06:36;;;;;;;15.35;10.07;;;;;;;4.82;100.00;102158.53;5009629;28;20061;-74
2024/01/31 07:09:04;;;;;;;15.93;10.27;;;;;;;4.93;100.00;102179.56;5015082;28;20123;-74
2024/01/31 07:11:32;;;;;;;14.63;10.27;;;;;;;4.86;100.00;102159.41;5014799;28;20064;-76
2024/01/31 07:14:00;;;;;;;16.70;11.38;;;;;;;4.82;100.00;102149.78;5023194;28;20104;-75
2024/01/31 07:16:35;;;;;;;16.35;10.90;;;;;;;4.98;100.00;102174.34;5008965;28;20046;-75
2024/01/31 07:19:05;;;;;;;17.02;11.40;;;;;;;4.97;100.00;102175.22;5008296;28;20466;-76
2024/01/31 07:21:36;;;;;;;17.67;10.63;;;;;;;5.08;100.00;102177.00;5006063;28;20121;-76
2024/01/31 07:24:04;;;;;;;18.13;11.18;;;;;;;5.13;100.00;102170.03;5009324;28;20061;-76
2024/01/31 07:26:48;;;;;;;15.45;10.43;;;;;;;5.24;100.00;102191.06;5003023;28;20077;-73
2024/01/31 07:29:18;;;;;;;17.38;10.77;;;;;;;5.24;100.00;102186.69;4988318;28;20061;-75
2024/01/31 07:31:46;;;;;;;18.75;10.43;;;;;;;5.31;100.00;102191.97;5010068;28;20125;-75
2024/01/31 07:34:16;;;;;;;16.48;10.32;;;;;;;5.35;100.00;102189.38;5015070;28;20046;-71
2024/01/31 07:36:45;;;;;;;17.73;10.65;;;;;;;5.38;100.00;102185.84;5006932;28;20108;-76
2024/01/31 07:39:14;;;;;;;15.40;10.70;;;;;;;5.41;100.00;102192.00;4997814;28;20089;-76
2024/01/31 07:41:45;;;;;;;15.73;10.32;;;;;;;5.40;100.00;102185.00;5009354;28;20065;-76
2024/01/31 07:44:14;;;;;;;16.58;11.15;;;;;;;5.52;100.00;102185.00;5003832;28;20137;-77
2024/01/31 07:46:43;;;;;;;15.55;10.25;;;;;;;5.52;100.00;102184.13;5006675;28;20068;-77
2024/01/31 07:49:11;;;;;;;17.42;11.27;;;;;;;5.61;100.00;102195.56;5011106;28;20152;-76
2024/01/31 07:51:52;;;;;;;17.90;10.52;;;;;;;5.72;100.00;102190.31;5015395;28;20490;-77
2024/01/31 07:54:21;;;;;;;15.77;10.50;;;;;;;5.74;100.00;102187.69;5005145;28;20049;-75
2024/01/31 07:56:49;;;;;;;17.08;9.98;;;;;;;5.77;100.00;102180.69;4988565;28;20526;-75
2024/01/31 07:59:17;;;;;;;15.23;9.75;;;;;;;5.84;100.00;102171.03;5008901;28;20057;-76
2024/01/31 08:01:46;;;;;;;20.95;11.60;;;;;;;5.96;100.00;102185.13;5008656;28;20041;-77
2024/01/31 08:04:16;;;;;;;21.23;12.25;;;;;;;6.07;100.00;102179.00;5009007;28;20056;-75
2024/01/31 08:06:47;;;;;;;19.50;12.32;;;;;;;6.17;100.00;102171.09;5002865;28;20076;-75
2024/01/31 08:09:18;;;;;;;21.67;12.50;;;;;;;6.27;100.00;102167.59;4999065;28;20050;-75
2024/01/31 08:11:57;;;;;;;18.15;11.63;;;;;;;6.36;100.00;102171.06;5023311;28;20582;-75
2024/01/31 08:14:26;;;;;;;20.38;11.10;;;;;;;6.33;100.00;102164.06;5003230;28;20052;-77
2024/01/31 08:17:02;;;;;;;16.73;10.90;;;;;;;6.45;100.00;102169.31;5008638;28;20054;-78
2024/01/31 08:19:30;;;;;;;21.92;11.93;;;;;;;6.46;100.00;102147.34;5000105;28;20057;-77
2024/01/31 08:22:00;;;;;;;23.90;12.25;;;;;;;6.61;100.00;102165.75;5001451;28;20064;-77
2024/01/31 08:24:31;;;;;;;;;;;;;;;6.67;100.00;102170.13;4999551;28;20054;-77
2024/01/31 08:27:01;;;;;;;17.08;10.32;;;;;;;6.69;100.00;102176.28;5010252;28;19925;-76
2024/01/31 08:29:30;;;;;;;18.35;11.00;;;;;;;6.74;100.00;102176.25;4999438;28;20060;-76
2024/01/31 08:32:00;;;;;;;19.23;10.10;;;;;;;6.66;100.00;102150.81;4999621;28;20054;-76
2024/01/31 08:34:31;;;;;;;19.75;10.43;;;;;;;6.88;100.00;102180.59;4994357;28;20048;-76
2024/01/31 08:37:03;;;;;;;21.02;9.98;;;;;;;6.94;100.00;102179.69;5002832;28;20053;-75
2024/01/31 08:39:35;;;;;;;15.68;10.30;;;;;;;6.98;100.00;102160.38;4982150;28;20132;-78
2024/01/31 08:42:04;;;;;;;20.95;11.52;;;;;;;7.12;100.00;102178.75;4995222;28;20745;-74
2024/01/31 08:44:32;;;;;;;22.92;10.93;;;;;;;7.10;100.00;102176.13;4997171;28;20053;-73
2024/01/31 08:47:02;;;;;;;19.13;11.13;;;;;;;7.07;100.00;102176.16;4994697;28;20057;-73
2024/01/31 08:49:46;;;;;;;16.00;10.50;;;;;;;7.07;100.00;102178.78;4999332;28;20122;-74
2024/01/31 08:52:17;;;;;;;17.77;10.13;;;;;;;7.11;100.00;102180.50;5000699;28;20045;-76
2024/01/31 08:54:46;;;;;;;19.80;10.45;;;;;;;7.13;100.00;102180.50;4996871;28;20113;-75
2024/01/31 08:57:14;;;;;;;18.95;10.90;;;;;;;7.07;100.00;102155.06;5000171;28;20054;-73
2024/01/31 08:59:48;;;;;;;19.13;10.90;;;;;;;7.24;100.00;102181.34;4998974;28;20057;-73
2024/01/31 09:02:16;;;;;;;19.92;10.52;;;;;;;7.28;100.00;102176.03;4999821;28;20049;-74
2024/01/31 09:04:46;;;;;;;15.98;9.80;;;;;;;7.38;100.00;102176.88;5006479;28;20088;-74
2024/01/31 09:07:18;;;;;;;17.20;10.93;;;;;;;7.55;100.00;102168.88;5022239;28;20037;-72
2024/01/31 09:09:46;;;;;;;18.50;11.00;;;;;;;7.59;100.00;102175.84;5010599;28;20037;-76
2024/01/31 09:12:14;;;;;;;17.08;10.88;;;;;;;7.53;100.00;102176.78;4989137;28;20054;-73
2024/01/31 09:14:43;;;;;;;15.52;10.20;;;;;;;7.54;100.00;102177.66;5024566;28;20045;-73
2024/01/31 09:17:14;;;;;;;14.80;9.82;;;;;;;7.64;100.00;102174.06;5020658;28;20041;-75
2024/01/31 09:19:43;;;;;;;19.25;11.48;;;;;;;7.68;100.00;102176.69;5005306;28;20046;-74
2024/01/31 09:22:18;;;;;;;20.33;11.45;;;;;;;7.49;100.00;102161.00;5007362;28;20034;-73
2024/01/31 09:24:49;;;;;;;16.15;10.73;;;;;;;7.59;100.00;102186.41;5013812;28;20049;-75
2024/01/31 09:27:19;;;;;;;17.73;9.68;;;;;;;7.60;100.00;102188.16;4999623;28;20847;-73
2024/01/31 09:29:47;;;;;;;16.03;9.07;;;;;;;7.66;100.00;102182.84;4999646;28;20054;-74
2024/01/31 09:32:16;;;;;;;12.52;8.38;;;;;;;7.72;100.00;102182.78;5003324;28;20050;-75
2024/01/31 09:34:46;;;;;;;17.13;9.55;;;;;;;7.79;100.00;102189.78;4986337;28;20053;-74
2024/01/31 09:37:15;;;;;;;13.23;8.55;;;;;;;7.85;100.00;102180.97;4999646;28;20077;-72
2024/01/31 09:39:45;;;;;;;13.15;8.15;;;;;;;7.88;100.00;102178.28;4980695;28;20050;-74
2024/01/31 09:42:14;;;;;;;14.25;8.52;;;;;;;7.94;100.00;102172.97;5003951;28;20057;-73
2024/01/31 09:44:42;;;;;;;14.25;8.32;;;;;;;7.99;100.00;102177.34;4995013;28;21122;-73
2024/01/31 09:47:14;;;;;;;11.90;7.70;;;;;;;8.00;100.00;102165.03;5012160;28;20385;-75
2024/01/31 09:49:45;;;;;;;13.02;8.23;;;;;;;8.10;100.00;102159.66;4996306;28;20047;-73
2024/01/31 09:52:17;;;;;;;11.82;8.73;;;;;;;8.21;100.00;102158.66;4967684;28;23198;-74
2024/01/31 09:54:50;;;;;;;13.50;8.20;;;;;;;8.16;100.00;102149.94;5012399;28;20516;-74
2024/01/31 09:57:18;;;;;;;14.43;8.55;;;;;;;8.26;100.00;102155.09;4995226;28;20046;-74
2024/01/31 09:59:56;;;;;;;10.77;8.02;;;;;;;8.24;100.00;102161.28;4998397;28;20038;-75
2024/01/31 10:02:24;;;;;;;14.60;8.18;;;;;;;8.23;100.00;102170.09;5012417;28;20034;-73
2024/01/31 10:04:55;;;;;;;11.20;7.97;;;;;;;8.35;100.00;102154.16;5011620;28;20042;-73
2024/01/31 10:07:30;;;;;;;13.57;8.43;;;;;;;8.53;100.00;102166.31;5002950;28;20077;-74
2024/01/31 10:10:00;;;;;;;12.52;7.97;;;;;;;8.54;100.00;102160.13;5024055;28;20049;-75
2024/01/31 10:12:30;;;;;;;11.40;8.15;;;;;;;8.43;100.00;102158.50;5020221;28;20846;-75
2024/01/31 10:14:59;;;;;;;14.80;8.48;;;;;;;8.40;100.00;102153.25;5008348;28;20137;-74
2024/01/31 10:17:28;;;;;;;11.00;7.50;;;;;;;8.60;100.00;102166.25;4995891;28;20044;-73
2024/01/31 10:19:56;;;;;;;11.68;7.18;;;;;;;8.74;100.00;102164.31;4997330;28;20108;-75
2024/01/31 10:22:33;;;;;;;13.43;8.13;;;;;;;8.87;100.00;102156.25;5004624;28;20711;-74
2024/01/31 10:25:07;;;;;;;12.27;8.15;;;;;;;8.87;100.00;102150.97;4989939;28;20370;-75
2024/01/31 10:27:37;;;;;;;14.68;7.90;;;;;;;8.94;100.00;102150.88;4977834;28;20046;-74
2024/01/31 10:30:07;;;;;;;9.30;5.72;;;;;;;9.01;100.00;102144.59;4998997;28;20042;-75
2024/01/31 10:32:40;;;;;;;6.18;3.95;;;;;;;9.19;100.00;102151.44;5004987;28;20129;-73
2024/01/31 10:35:09;;;;;;;10.57;5.80;;;;;;;9.08;100.00;102121.63;5017456;28;20046;-75
2024/01/31 10:38:01;;;;;;;6.65;3.92;;;;;;;9.15;100.00;102145.31;4995624;28;20110;-72
2024/01/31 10:41:02;;;;;;;10.05;3.50;;;;;;;8.95;100.00;102144.72;4998048;28;20061;-75
2024/01/31 10:43:33;;;;;;;5.80;3.17;;;;;;;8.76;100.00;102128.19;4996680;28;20057;-73
2024/01/31 10:46:02;;;;;;;6.75;3.80;;;;;;;8.71;100.00;102140.56;4994558;28;20047;-74
2024/01/31 10:48:30;;;;;;;6.30;3.40;;;;;;;8.69;100.00;102142.34;4972515;28;20050;-75
2024/01/31 10:51:02;;;;;;;5.15;3.28;;;;;;;8.67;100.00;102149.41;5006628;28;20042;-75
2024/01/31 10:53:35;;;;;;;7.78;3.05;;;;;;;8.59;100.00;102143.38;5009258;28;20100;-74
2024/01/31 10:56:07;;;;;;;6.55;3.38;;;;;;;8.59;100.00;102148.66;4990501;28;20081;-76
2024/01/31 10:58:36;;;;;;;5.80;3.50;;;;;;;8.50;100.00;102138.16;4986976;28;20054;-74
2024/01/31 11:01:05;;;;;;;5.60;3.55;;;;;;;8.54;100.00;102160.13;5006380;28;20486;-75
2024/01/31 11:03:34;;;;;;;5.60;3.88;;;;;;;8.43;100.00;102147.06;5010250;28;20046;-75
2024/01/31 11:06:03;;;;;;;6.93;3.60;;;;;;;8.41;100.00;102154.13;5005824;28;20057;-75
2024/01/31 11:08:32;;;;;;;5.85;4.18;;;;;;;8.40;100.00;102165.56;5002024;28;20065;-74
2024/01/31 11:11:02;;;;;;;5.97;3.93;;;;;;;8.33;100.00;102161.25;5012280;28;20049;-73
2024/01/31 11:13:36;;;;;;;8.10;4.93;;;;;;;8.28;100.00;102140.13;5011306;28;20465;-73
2024/01/31 11:16:05;;;;;;;8.40;5.53;;;;;;;8.39;100.00;102163.81;5005833;28;20495;-76
2024/01/31 11:18:36;;;;;;;9.15;4.32;;;;;;;8.41;100.00;102164.66;5002752;28;20042;-73
2024/01/31 11:21:10;;;;;;;10.07;4.07;;;;;;;8.42;100.00;102171.69;5008701;28;20054;-75
2024/01/31 11:23:40;;;;;;;5.40;3.20;;;;;;;8.27;100.00;102142.78;4994423;28;20065;-74
2024/01/31 11:26:09;;;;;;;4.07;2.75;;;;;;;8.36;100.00;102156.78;5005657;28;20092;-73
2024/01/31 11:28:42;;;;;;;7.35;2.97;;;;;;;8.34;100.00;102148.00;5002879;28;20081;-74